Domov               UVHVVR             MKGP            O straneh              
ZDRAVSTVENO VARSTVO RASTLIN
  MREŽA AGROMET. POSTAJ
 ► PROGNOSTIČNA OBVESTILA
AGROMETEOROLOŠKI PODATKI -
ARSO
OBVLADOVANJE TVEGANJ ZARADI
NEUGODNIH VREMENSKIH RAZMER
  ► NARAVNE NESREČE
  ► SUŠA/MOČA
  ► NAMAKANJE
  ► ŽLED (gozdarstvo)
KARTOGRAFSKI PRIKAZI
SPLETNE POVEZAVE
PROJEKTI IN PUBLIKACIJE

AGROMETEOROLOŠKA MREŽA: VREMENSKE POSTAJE IN FENOLOŠKA OPAZOVANJA

Pregled podatkov za lokacijo Virštanj, meteorološka postaja 39749

Pregled senzorjev na lokaciji

ID Ime Zadnja
vrednost
Datum
zadnje
spremembe
Tip
senzorja
4316 Omočenost lista (U) 0 U 19.7.2018 05:30 A730WET
3127 Padavine (mm) 0 mm 19.7.2018 05:30 Rain-O-Matic
3125 Relativna vlaga 2 m (% RH) 72,26 % RH 19.7.2018 05:30 50YA
3124 Temperatura 2 m (°C) 17,51 °C 19.7.2018 05:30 50YA

Pregled podatkov zadnjih 24 ur

Zap.
št.
Datum in čas Virštanj
Omočenost
lista
Padavine Relativna
vlaga
2
m
Temperatura
2
m
1 19.7.2018 06:00
2 19.7.2018 05:30
3 19.7.2018 05:00
4 19.7.2018 04:30 0 0 72,3 17,5
5 19.7.2018 04:00 0 0 75,5 17,2
6 19.7.2018 03:30 0 0 75,2 17,4
7 19.7.2018 03:00 0 0 73,9 17,7
8 19.7.2018 02:30 0 0 73,7 18,2
9 19.7.2018 02:00 0 0 71,8 19
10 19.7.2018 01:30 0 0 70,3 19,6
11 19.7.2018 01:00 0 0 70 19,8
12 19.7.2018 00:30 0 0 69 19,9
13 19.7.2018 00:00 0 0 70,2 19,6
14 18.7.2018 23:30 0 0 72,3 19,4
15 18.7.2018 23:00 0 0 67,9 20,4
16 18.7.2018 22:30 0 0 66,7 20,8
17 18.7.2018 22:00 0 0 66,9 21
18 18.7.2018 21:30 0 0 69,1 20,7
19 18.7.2018 21:00 0 0 65,3 21
20 18.7.2018 20:30 0 0 48,6 23,9
21 18.7.2018 20:00 0 0 42,5 25,1
22 18.7.2018 19:30 0 0 41 25,7
23 18.7.2018 19:00 0 0 51,1 25
24 18.7.2018 18:30 0 0 51,2 25,5
25 18.7.2018 18:00 0 0 48,9 26,3
26 18.7.2018 17:30 0 0 44,7 27,5
27 18.7.2018 17:00 0 0 40,6 28,3
28 18.7.2018 16:30 0 0 42,3 28,8
29 18.7.2018 16:00 0 0 40,8 28,6
30 18.7.2018 15:30 0 0 42,1 28,9
31 18.7.2018 15:00 0 0 40 28,6
32 18.7.2018 14:30 0 0 43,1 28,8
33 18.7.2018 14:00 0 0 41 28,4
34 18.7.2018 13:30 0 0 41 28,1
35 18.7.2018 13:00 0 0 42,4 28,1
36 18.7.2018 12:30 0 0 44,6 27,9
37 18.7.2018 12:00 0 0 47,7 27,6
38 18.7.2018 11:30 0 0 49,2 27
39 18.7.2018 11:00 0 0 48,9 27,2
40 18.7.2018 10:30 0 0 52,7 25,9
41 18.7.2018 10:00 0 0 54,1 25,4
42 18.7.2018 09:30 0 0 50,2 25,7
43 18.7.2018 09:00 0 0 55,1 25,3
44 18.7.2018 08:30 0 0 58,3 24,8
45 18.7.2018 08:00 0 0 59,1 24,3
46 18.7.2018 07:30 0 0 60,8 23
47 18.7.2018 07:00 0 0 59 21,7
48 18.7.2018 06:30 0 0 60,1 20,6
© 2011 Ministrstvo za kmetijstvo, gozdarstvo in prehrano. Vse pravice pridržane.